LGPZ/PVK METAR and TAF weather

Enter ICAO airport designator
Station Type Date Time Source
LGPZ METAR 2020/04/02 01:50 UTC NOAA

LGPZ 020150Z 00000KT 9999 FEW025 05/03 Q1011


Station Type Date Time Source
LGPZ Decoded METAR 2020/04/02 01:50 UTC NOAA

Aktion Airport , Greece (LGPZ) 38-37N 020-46E 4M
Apr 01, 2020 - 09:50 PM EDT / 2020.04.02 0150 UTC
Wind: Calm:0
Visibility: greater than 7 mile(s):0
Sky conditions: mostly clear
Temperature: 41 F (5 C)
Dew Point: 37 F (3 C)
Relative Humidity: 86%
Pressure (altimeter): 29.85 in. Hg (1011 hPa)
ob: LGPZ 020150Z 00000KT 9999 FEW025 05/03 Q1011
cycle: 2

Station Type Date Time Source
LGPZ TAF 2020/04/01 18:12 UTC NOAA

TAF TAF LGPZ 011700Z 0118/0218 28015KT 9000 SCT020 BKN070 PROB40
TEMPO 0118/0121 5000 SHRA FEW018TCU SCT020 OVC080
BECMG 0200/0202 VRB05KT

Example: see airport list